sensor_id;sensor_type;location;lat;lon;timestamp;P1;P2;P0
33431;PMS5003;35187;31.882;34.828;2023-05-07T00:01:13;20;17;
33431;PMS5003;35187;31.882;34.828;2023-05-07T00:03:50;20;19;
33431;PMS5003;35187;31.882;34.828;2023-05-07T00:06:19;17;15;
33431;PMS5003;35187;31.882;34.828;2023-05-07T00:08:48;18;15;
33431;PMS5003;35187;31.882;34.828;2023-05-07T00:11:18;24;19;
33431;PMS5003;35187;31.882;34.828;2023-05-07T00:13:47;18;16;
33431;PMS5003;35187;31.882;34.828;2023-05-07T00:16:17;18;17;
33431;PMS5003;35187;31.882;34.828;2023-05-07T00:19:04;17;15;
33431;PMS5003;35187;31.882;34.828;2023-05-07T00:21:33;17;16;
33431;PMS5003;35187;31.882;34.828;2023-05-07T00:24:12;17;16;
33431;PMS5003;35187;31.882;34.828;2023-05-07T00:26:46;20;18;
33431;PMS5003;35187;31.882;34.828;2023-05-07T00:29:15;19;17;
33431;PMS5003;35187;31.882;34.828;2023-05-07T00:31:44;16;15;
33431;PMS5003;35187;31.882;34.828;2023-05-07T00:34:18;15;14;
33431;PMS5003;35187;31.882;34.828;2023-05-07T00:36:47;16;15;
33431;PMS5003;35187;31.882;34.828;2023-05-07T00:39:29;18;17;
33431;PMS5003;35187;31.882;34.828;2023-05-07T00:42:03;16;13;
33431;PMS5003;35187;31.882;34.828;2023-05-07T00:44:38;20;17;
33431;PMS5003;35187;31.882;34.828;2023-05-07T00:47:07;20;18;
33431;PMS5003;35187;31.882;34.828;2023-05-07T00:49:39;20;18;
33431;PMS5003;35187;31.882;34.828;2023-05-07T00:52:13;13;12;
33431;PMS5003;35187;31.882;34.828;2023-05-07T00:54:44;17;15;
33431;PMS5003;35187;31.882;34.828;2023-05-07T00:57:23;15;15;
33431;PMS5003;35187;31.882;34.828;2023-05-07T00:59:57;15;14;
33431;PMS5003;35187;31.882;34.828;2023-05-07T01:02:26;19;15;
33431;PMS5003;35187;31.882;34.828;2023-05-07T01:04:55;18;16;
33431;PMS5003;35187;31.882;34.828;2023-05-07T01:07:24;16;16;
33431;PMS5003;35187;31.882;34.828;2023-05-07T01:09:53;16;16;
33431;PMS5003;35187;31.882;34.828;2023-05-07T01:12:22;16;15;
33431;PMS5003;35187;31.882;34.828;2023-05-07T01:14:52;15;14;
33431;PMS5003;35187;31.882;34.828;2023-05-07T01:17:21;17;15;
33431;PMS5003;35187;31.882;34.828;2023-05-07T01:19:51;15;13;
33431;PMS5003;35187;31.882;34.828;2023-05-07T01:22:27;15;15;
33431;PMS5003;35187;31.882;34.828;2023-05-07T01:25:00;18;16;
33431;PMS5003;35187;31.882;34.828;2023-05-07T01:27:30;17;16;
33431;PMS5003;35187;31.882;34.828;2023-05-07T01:30:01;15;13;
33431;PMS5003;35187;31.882;34.828;2023-05-07T01:32:32;15;14;
33431;PMS5003;35187;31.882;34.828;2023-05-07T01:35:17;16;14;
33431;PMS5003;35187;31.882;34.828;2023-05-07T01:37:48;15;15;
33431;PMS5003;35187;31.882;34.828;2023-05-07T01:40:17;14;12;
33431;PMS5003;35187;31.882;34.828;2023-05-07T01:42:47;15;13;
33431;PMS5003;35187;31.882;34.828;2023-05-07T01:45:25;19;17;
33431;PMS5003;35187;31.882;34.828;2023-05-07T01:48:06;16;15;
33431;PMS5003;35187;31.882;34.828;2023-05-07T01:50:36;15;14;
33431;PMS5003;35187;31.882;34.828;2023-05-07T01:53:06;19;14;
33431;PMS5003;35187;31.882;34.828;2023-05-07T01:55:38;16;15;
33431;PMS5003;35187;31.882;34.828;2023-05-07T01:58:07;15;15;
33431;PMS5003;35187;31.882;34.828;2023-05-07T02:00:48;17;14;
33431;PMS5003;35187;31.882;34.828;2023-05-07T02:03:26;18;14;
33431;PMS5003;35187;31.882;34.828;2023-05-07T02:05:55;15;14;
33431;PMS5003;35187;31.882;34.828;2023-05-07T02:08:29;16;14;
33431;PMS5003;35187;31.882;34.828;2023-05-07T02:11:00;17;15;
33431;PMS5003;35187;31.882;34.828;2023-05-07T02:13:29;15;14;
33431;PMS5003;35187;31.882;34.828;2023-05-07T02:15:59;19;15;
33431;PMS5003;35187;31.882;34.828;2023-05-07T02:18:30;18;15;
33431;PMS5003;35187;31.882;34.828;2023-05-07T02:21:11;16;15;
33431;PMS5003;35187;31.882;34.828;2023-05-07T02:23:41;19;15;
33431;PMS5003;35187;31.882;34.828;2023-05-07T02:26:11;16;14;
33431;PMS5003;35187;31.882;34.828;2023-05-07T02:28:40;17;14;
33431;PMS5003;35187;31.882;34.828;2023-05-07T02:31:09;15;13;
33431;PMS5003;35187;31.882;34.828;2023-05-07T02:33:38;15;13;
33431;PMS5003;35187;31.882;34.828;2023-05-07T02:36:11;15;14;
33431;PMS5003;35187;31.882;34.828;2023-05-07T02:38:40;15;15;
33431;PMS5003;35187;31.882;34.828;2023-05-07T02:41:09;21;15;
33431;PMS5003;35187;31.882;34.828;2023-05-07T02:43:43;17;16;
33431;PMS5003;35187;31.882;34.828;2023-05-07T02:46:13;18;15;
33431;PMS5003;35187;31.882;34.828;2023-05-07T02:48:42;18;17;
33431;PMS5003;35187;31.882;34.828;2023-05-07T02:51:11;17;16;
33431;PMS5003;35187;31.882;34.828;2023-05-07T02:53:42;15;15;
33431;PMS5003;35187;31.882;34.828;2023-05-07T02:56:15;22;16;
33431;PMS5003;35187;31.882;34.828;2023-05-07T02:58:46;13;13;
33431;PMS5003;35187;31.882;34.828;2023-05-07T03:01:14;18;16;
33431;PMS5003;35187;31.882;34.828;2023-05-07T03:03:43;16;15;
33431;PMS5003;35187;31.882;34.828;2023-05-07T03:06:12;14;13;
33431;PMS5003;35187;31.882;34.828;2023-05-07T03:08:43;16;15;
33431;PMS5003;35187;31.882;34.828;2023-05-07T03:11:13;15;15;
33431;PMS5003;35187;31.882;34.828;2023-05-07T03:13:44;17;14;
33431;PMS5003;35187;31.882;34.828;2023-05-07T03:16:15;16;14;
33431;PMS5003;35187;31.882;34.828;2023-05-07T03:18:44;18;14;
33431;PMS5003;35187;31.882;34.828;2023-05-07T03:21:14;18;13;
33431;PMS5003;35187;31.882;34.828;2023-05-07T03:23:43;15;14;
33431;PMS5003;35187;31.882;34.828;2023-05-07T03:26:11;17;16;
33431;PMS5003;35187;31.882;34.828;2023-05-07T03:28:40;18;17;
33431;PMS5003;35187;31.882;34.828;2023-05-07T03:31:09;17;15;
33431;PMS5003;35187;31.882;34.828;2023-05-07T03:33:47;16;14;
33431;PMS5003;35187;31.882;34.828;2023-05-07T03:36:19;16;14;
33431;PMS5003;35187;31.882;34.828;2023-05-07T03:38:49;18;15;
33431;PMS5003;35187;31.882;34.828;2023-05-07T03:41:18;16;14;
33431;PMS5003;35187;31.882;34.828;2023-05-07T03:43:47;15;14;
33431;PMS5003;35187;31.882;34.828;2023-05-07T03:46:16;16;15;
33431;PMS5003;35187;31.882;34.828;2023-05-07T03:48:46;22;19;
33431;PMS5003;35187;31.882;34.828;2023-05-07T03:51:15;17;15;
33431;PMS5003;35187;31.882;34.828;2023-05-07T03:53:43;18;16;
33431;PMS5003;35187;31.882;34.828;2023-05-07T03:56:12;15;15;
33431;PMS5003;35187;31.882;34.828;2023-05-07T03:58:41;19;15;
33431;PMS5003;35187;31.882;34.828;2023-05-07T04:01:10;19;17;
33431;PMS5003;35187;31.882;34.828;2023-05-07T04:03:44;19;16;
33431;PMS5003;35187;31.882;34.828;2023-05-07T04:06:13;19;17;
33431;PMS5003;35187;31.882;34.828;2023-05-07T04:08:43;21;19;
33431;PMS5003;35187;31.882;34.828;2023-05-07T04:11:12;18;17;
33431;PMS5003;35187;31.882;34.828;2023-05-07T04:13:41;17;14;
33431;PMS5003;35187;31.882;34.828;2023-05-07T04:16:10;18;15;
33431;PMS5003;35187;31.882;34.828;2023-05-07T04:18:39;16;15;
33431;PMS5003;35187;31.882;34.828;2023-05-07T04:21:13;19;17;
33431;PMS5003;35187;31.882;34.828;2023-05-07T04:23:46;17;16;
33431;PMS5003;35187;31.882;34.828;2023-05-07T04:26:15;15;15;
33431;PMS5003;35187;31.882;34.828;2023-05-07T04:28:44;16;15;
33431;PMS5003;35187;31.882;34.828;2023-05-07T04:31:15;17;14;
33431;PMS5003;35187;31.882;34.828;2023-05-07T04:33:44;15;14;
33431;PMS5003;35187;31.882;34.828;2023-05-07T04:36:13;18;16;
33431;PMS5003;35187;31.882;34.828;2023-05-07T04:38:42;17;16;
33431;PMS5003;35187;31.882;34.828;2023-05-07T04:41:12;18;16;
33431;PMS5003;35187;31.882;34.828;2023-05-07T04:43:41;18;17;
33431;PMS5003;35187;31.882;34.828;2023-05-07T04:46:10;18;16;
33431;PMS5003;35187;31.882;34.828;2023-05-07T04:48:38;19;16;
33431;PMS5003;35187;31.882;34.828;2023-05-07T04:51:23;14;13;
33431;PMS5003;35187;31.882;34.828;2023-05-07T04:53:53;17;16;
33431;PMS5003;35187;31.882;34.828;2023-05-07T04:56:22;20;17;
33431;PMS5003;35187;31.882;34.828;2023-05-07T04:58:55;20;17;
33431;PMS5003;35187;31.882;34.828;2023-05-07T05:01:24;15;14;
33431;PMS5003;35187;31.882;34.828;2023-05-07T05:03:53;18;16;
33431;PMS5003;35187;31.882;34.828;2023-05-07T05:06:22;16;14;
33431;PMS5003;35187;31.882;34.828;2023-05-07T05:08:51;15;14;
33431;PMS5003;35187;31.882;34.828;2023-05-07T05:11:21;17;16;
33431;PMS5003;35187;31.882;34.828;2023-05-07T05:13:50;15;15;
33431;PMS5003;35187;31.882;34.828;2023-05-07T05:16:20;16;15;
33431;PMS5003;35187;31.882;34.828;2023-05-07T05:18:49;19;17;
33431;PMS5003;35187;31.882;34.828;2023-05-07T05:21:19;19;17;
33431;PMS5003;35187;31.882;34.828;2023-05-07T05:23:48;14;14;
33431;PMS5003;35187;31.882;34.828;2023-05-07T05:26:17;19;17;
33431;PMS5003;35187;31.882;34.828;2023-05-07T05:28:46;15;13;
33431;PMS5003;35187;31.882;34.828;2023-05-07T05:31:15;18;15;
33431;PMS5003;35187;31.882;34.828;2023-05-07T05:33:45;16;15;
33431;PMS5003;35187;31.882;34.828;2023-05-07T05:36:13;14;13;
33431;PMS5003;35187;31.882;34.828;2023-05-07T05:38:42;16;15;
33431;PMS5003;35187;31.882;34.828;2023-05-07T05:41:12;13;13;
33431;PMS5003;35187;31.882;34.828;2023-05-07T05:43:41;20;16;
33431;PMS5003;35187;31.882;34.828;2023-05-07T05:46:10;18;16;
33431;PMS5003;35187;31.882;34.828;2023-05-07T05:48:39;17;15;
33431;PMS5003;35187;31.882;34.828;2023-05-07T05:51:08;19;17;
33431;PMS5003;35187;31.882;34.828;2023-05-07T05:53:37;17;16;
33431;PMS5003;35187;31.882;34.828;2023-05-07T05:56:13;14;14;
33431;PMS5003;35187;31.882;34.828;2023-05-07T05:58:43;17;16;
33431;PMS5003;35187;31.882;34.828;2023-05-07T06:01:12;18;16;
33431;PMS5003;35187;31.882;34.828;2023-05-07T06:03:41;19;17;
33431;PMS5003;35187;31.882;34.828;2023-05-07T06:06:10;19;17;
33431;PMS5003;35187;31.882;34.828;2023-05-07T06:08:39;17;15;
33431;PMS5003;35187;31.882;34.828;2023-05-07T06:11:08;17;16;
33431;PMS5003;35187;31.882;34.828;2023-05-07T06:13:38;17;16;
33431;PMS5003;35187;31.882;34.828;2023-05-07T06:16:07;21;16;
33431;PMS5003;35187;31.882;34.828;2023-05-07T06:18:35;18;16;
33431;PMS5003;35187;31.882;34.828;2023-05-07T06:21:04;17;15;
33431;PMS5003;35187;31.882;34.828;2023-05-07T06:23:33;18;17;
33431;PMS5003;35187;31.882;34.828;2023-05-07T06:26:03;17;15;
33431;PMS5003;35187;31.882;34.828;2023-05-07T06:28:32;21;18;
33431;PMS5003;35187;31.882;34.828;2023-05-07T06:31:10;15;14;
33431;PMS5003;35187;31.882;34.828;2023-05-07T06:33:40;20;16;
33431;PMS5003;35187;31.882;34.828;2023-05-07T06:36:09;18;16;
33431;PMS5003;35187;31.882;34.828;2023-05-07T06:38:40;16;15;
33431;PMS5003;35187;31.882;34.828;2023-05-07T06:41:08;15;15;
33431;PMS5003;35187;31.882;34.828;2023-05-07T06:43:37;18;16;
33431;PMS5003;35187;31.882;34.828;2023-05-07T06:46:07;17;15;
33431;PMS5003;35187;31.882;34.828;2023-05-07T06:48:36;13;12;
33431;PMS5003;35187;31.882;34.828;2023-05-07T06:51:05;19;16;
33431;PMS5003;35187;31.882;34.828;2023-05-07T06:53:35;15;14;
33431;PMS5003;35187;31.882;34.828;2023-05-07T06:56:04;19;16;
33431;PMS5003;35187;31.882;34.828;2023-05-07T06:58:33;17;16;
33431;PMS5003;35187;31.882;34.828;2023-05-07T07:01:02;22;16;
33431;PMS5003;35187;31.882;34.828;2023-05-07T07:03:31;13;13;
33431;PMS5003;35187;31.882;34.828;2023-05-07T07:06:00;18;15;
33431;PMS5003;35187;31.882;34.828;2023-05-07T07:08:30;18;17;
33431;PMS5003;35187;31.882;34.828;2023-05-07T07:10:59;17;16;
33431;PMS5003;35187;31.882;34.828;2023-05-07T07:13:28;18;16;
33431;PMS5003;35187;31.882;34.828;2023-05-07T07:15:57;17;15;
33431;PMS5003;35187;31.882;34.828;2023-05-07T07:18:27;16;15;
33431;PMS5003;35187;31.882;34.828;2023-05-07T07:20:56;18;16;
33431;PMS5003;35187;31.882;34.828;2023-05-07T07:23:25;19;17;
33431;PMS5003;35187;31.882;34.828;2023-05-07T07:25:54;18;17;
33431;PMS5003;35187;31.882;34.828;2023-05-07T07:28:23;21;17;
33431;PMS5003;35187;31.882;34.828;2023-05-07T07:30:53;21;18;
33431;PMS5003;35187;31.882;34.828;2023-05-07T07:33:23;20;18;
33431;PMS5003;35187;31.882;34.828;2023-05-07T07:35:52;18;17;
33431;PMS5003;35187;31.882;34.828;2023-05-07T07:38:20;16;16;
33431;PMS5003;35187;31.882;34.828;2023-05-07T07:40:49;20;16;
33431;PMS5003;35187;31.882;34.828;2023-05-07T07:43:19;18;16;
33431;PMS5003;35187;31.882;34.828;2023-05-07T07:45:48;18;17;
33431;PMS5003;35187;31.882;34.828;2023-05-07T07:48:17;16;15;
33431;PMS5003;35187;31.882;34.828;2023-05-07T07:50:48;19;16;
33431;PMS5003;35187;31.882;34.828;2023-05-07T07:53:17;18;16;
33431;PMS5003;35187;31.882;34.828;2023-05-07T07:55:47;21;18;
33431;PMS5003;35187;31.882;34.828;2023-05-07T07:58:16;21;19;
33431;PMS5003;35187;31.882;34.828;2023-05-07T08:00:45;16;16;
33431;PMS5003;35187;31.882;34.828;2023-05-07T08:03:14;21;17;
33431;PMS5003;35187;31.882;34.828;2023-05-07T08:05:43;19;18;
33431;PMS5003;35187;31.882;34.828;2023-05-07T08:08:12;23;18;
33431;PMS5003;35187;31.882;34.828;2023-05-07T08:10:47;19;18;
33431;PMS5003;35187;31.882;34.828;2023-05-07T08:13:17;19;17;
33431;PMS5003;35187;31.882;34.828;2023-05-07T08:15:49;22;19;
33431;PMS5003;35187;31.882;34.828;2023-05-07T08:18:23;22;18;
33431;PMS5003;35187;31.882;34.828;2023-05-07T08:20:53;18;16;
33431;PMS5003;35187;31.882;34.828;2023-05-07T08:23:22;17;15;
33431;PMS5003;35187;31.882;34.828;2023-05-07T08:25:51;16;14;
33431;PMS5003;35187;31.882;34.828;2023-05-07T08:28:20;19;19;
33431;PMS5003;35187;31.882;34.828;2023-05-07T08:30:50;21;19;
33431;PMS5003;35187;31.882;34.828;2023-05-07T08:33:24;21;17;
33431;PMS5003;35187;31.882;34.828;2023-05-07T08:35:53;19;17;
33431;PMS5003;35187;31.882;34.828;2023-05-07T08:38:22;19;18;
33431;PMS5003;35187;31.882;34.828;2023-05-07T08:40:51;17;15;
33431;PMS5003;35187;31.882;34.828;2023-05-07T08:43:21;17;17;
33431;PMS5003;35187;31.882;34.828;2023-05-07T08:45:52;19;18;
33431;PMS5003;35187;31.882;34.828;2023-05-07T08:48:24;22;19;
33431;PMS5003;35187;31.882;34.828;2023-05-07T08:50:57;18;17;
33431;PMS5003;35187;31.882;34.828;2023-05-07T08:53:27;18;16;
33431;PMS5003;35187;31.882;34.828;2023-05-07T08:55:57;19;19;
33431;PMS5003;35187;31.882;34.828;2023-05-07T08:58:26;19;19;
33431;PMS5003;35187;31.882;34.828;2023-05-07T09:00:55;20;16;
33431;PMS5003;35187;31.882;34.828;2023-05-07T09:03:24;21;20;
33431;PMS5003;35187;31.882;34.828;2023-05-07T09:05:53;15;14;
33431;PMS5003;35187;31.882;34.828;2023-05-07T09:08:25;18;18;
33431;PMS5003;35187;31.882;34.828;2023-05-07T09:10:55;20;19;
33431;PMS5003;35187;31.882;34.828;2023-05-07T09:13:25;20;17;
33431;PMS5003;35187;31.882;34.828;2023-05-07T09:15:56;18;18;
33431;PMS5003;35187;31.882;34.828;2023-05-07T09:18:25;22;21;
33431;PMS5003;35187;31.882;34.828;2023-05-07T09:20:54;17;16;
33431;PMS5003;35187;31.882;34.828;2023-05-07T09:23:24;19;18;
33431;PMS5003;35187;31.882;34.828;2023-05-07T09:25:53;17;16;
33431;PMS5003;35187;31.882;34.828;2023-05-07T09:28:29;17;17;
33431;PMS5003;35187;31.882;34.828;2023-05-07T09:30:58;18;16;
33431;PMS5003;35187;31.882;34.828;2023-05-07T09:33:28;19;17;
33431;PMS5003;35187;31.882;34.828;2023-05-07T09:35:58;20;19;
33431;PMS5003;35187;31.882;34.828;2023-05-07T09:38:31;21;17;
33431;PMS5003;35187;31.882;34.828;2023-05-07T09:41:02;24;23;
33431;PMS5003;35187;31.882;34.828;2023-05-07T09:43:33;18;18;
33431;PMS5003;35187;31.882;34.828;2023-05-07T09:46:03;17;17;
33431;PMS5003;35187;31.882;34.828;2023-05-07T09:48:36;21;19;
33431;PMS5003;35187;31.882;34.828;2023-05-07T09:51:10;21;18;
33431;PMS5003;35187;31.882;34.828;2023-05-07T09:53:47;17;17;
33431;PMS5003;35187;31.882;34.828;2023-05-07T09:56:18;18;17;
33431;PMS5003;35187;31.882;34.828;2023-05-07T09:58:48;21;18;
33431;PMS5003;35187;31.882;34.828;2023-05-07T10:01:20;21;20;
33431;PMS5003;35187;31.882;34.828;2023-05-07T10:03:50;24;21;
33431;PMS5003;35187;31.882;34.828;2023-05-07T10:06:28;20;19;
33431;PMS5003;35187;31.882;34.828;2023-05-07T10:08:59;21;19;
33431;PMS5003;35187;31.882;34.828;2023-05-07T10:11:28;23;22;
33431;PMS5003;35187;31.882;34.828;2023-05-07T10:13:59;21;19;
33431;PMS5003;35187;31.882;34.828;2023-05-07T10:16:29;20;18;
33431;PMS5003;35187;31.882;34.828;2023-05-07T10:19:00;19;18;
33431;PMS5003;35187;31.882;34.828;2023-05-07T10:21:32;22;20;
33431;PMS5003;35187;31.882;34.828;2023-05-07T10:24:04;19;18;
33431;PMS5003;35187;31.882;34.828;2023-05-07T10:27:05;21;18;
33431;PMS5003;35187;31.882;34.828;2023-05-07T10:30:05;20;18;
33431;PMS5003;35187;31.882;34.828;2023-05-07T10:32:40;17;17;
33431;PMS5003;35187;31.882;34.828;2023-05-07T10:35:16;19;17;
33431;PMS5003;35187;31.882;34.828;2023-05-07T10:37:48;21;19;
33431;PMS5003;35187;31.882;34.828;2023-05-07T10:40:18;30;22;
33431;PMS5003;35187;31.882;34.828;2023-05-07T10:42:57;21;19;
33431;PMS5003;35187;31.882;34.828;2023-05-07T10:45:27;21;17;
33431;PMS5003;35187;31.882;34.828;2023-05-07T10:48:13;21;18;
33431;PMS5003;35187;31.882;34.828;2023-05-07T10:50:43;22;18;
33431;PMS5003;35187;31.882;34.828;2023-05-07T10:53:29;19;16;
33431;PMS5003;35187;31.882;34.828;2023-05-07T10:56:30;19;17;
33431;PMS5003;35187;31.882;34.828;2023-05-07T10:59:29;22;21;
33431;PMS5003;35187;31.882;34.828;2023-05-07T11:02:03;20;19;
33431;PMS5003;35187;31.882;34.828;2023-05-07T11:04:33;18;17;
33431;PMS5003;35187;31.882;34.828;2023-05-07T11:07:40;24;20;
33431;PMS5003;35187;31.882;34.828;2023-05-07T11:10:26;21;17;
33431;PMS5003;35187;31.882;34.828;2023-05-07T11:13:16;22;18;
33431;PMS5003;35187;31.882;34.828;2023-05-07T11:15:47;18;18;
33431;PMS5003;35187;31.882;34.828;2023-05-07T11:18:16;21;19;
33431;PMS5003;35187;31.882;34.828;2023-05-07T11:20:48;21;18;
33431;PMS5003;35187;31.882;34.828;2023-05-07T11:24:02;27;22;
33431;PMS5003;35187;31.882;34.828;2023-05-07T11:26:42;19;18;
33431;PMS5003;35187;31.882;34.828;2023-05-07T11:29:34;21;20;
33431;PMS5003;35187;31.882;34.828;2023-05-07T11:32:14;18;18;
33431;PMS5003;35187;31.882;34.828;2023-05-07T11:34:43;20;18;
33431;PMS5003;35187;31.882;34.828;2023-05-07T11:37:16;21;18;
33431;PMS5003;35187;31.882;34.828;2023-05-07T11:39:46;22;19;
33431;PMS5003;35187;31.882;34.828;2023-05-07T11:42:32;23;19;
33431;PMS5003;35187;31.882;34.828;2023-05-07T11:45:03;22;18;
33431;PMS5003;35187;31.882;34.828;2023-05-07T11:47:33;19;18;
33431;PMS5003;35187;31.882;34.828;2023-05-07T11:50:03;20;19;
33431;PMS5003;35187;31.882;34.828;2023-05-07T11:52:34;17;17;
33431;PMS5003;35187;31.882;34.828;2023-05-07T11:55:03;27;21;
33431;PMS5003;35187;31.882;34.828;2023-05-07T11:57:37;23;20;
33431;PMS5003;35187;31.882;34.828;2023-05-07T12:00:08;20;19;
33431;PMS5003;35187;31.882;34.828;2023-05-07T12:02:37;21;19;
33431;PMS5003;35187;31.882;34.828;2023-05-07T12:05:06;20;20;
33431;PMS5003;35187;31.882;34.828;2023-05-07T12:07:36;23;21;
33431;PMS5003;35187;31.882;34.828;2023-05-07T12:10:05;20;18;
33431;PMS5003;35187;31.882;34.828;2023-05-07T12:12:38;22;20;
33431;PMS5003;35187;31.882;34.828;2023-05-07T12:15:07;22;19;
33431;PMS5003;35187;31.882;34.828;2023-05-07T12:17:42;23;21;
33431;PMS5003;35187;31.882;34.828;2023-05-07T12:20:12;22;22;
33431;PMS5003;35187;31.882;34.828;2023-05-07T12:22:41;23;22;
33431;PMS5003;35187;31.882;34.828;2023-05-07T12:25:10;24;22;
33431;PMS5003;35187;31.882;34.828;2023-05-07T12:27:40;24;20;
33431;PMS5003;35187;31.882;34.828;2023-05-07T12:30:12;24;23;
33431;PMS5003;35187;31.882;34.828;2023-05-07T12:32:42;21;20;
33431;PMS5003;35187;31.882;34.828;2023-05-07T12:35:13;23;20;
33431;PMS5003;35187;31.882;34.828;2023-05-07T12:37:42;26;22;
33431;PMS5003;35187;31.882;34.828;2023-05-07T12:40:13;23;22;
33431;PMS5003;35187;31.882;34.828;2023-05-07T12:42:43;22;19;
33431;PMS5003;35187;31.882;34.828;2023-05-07T12:45:13;22;21;
33431;PMS5003;35187;31.882;34.828;2023-05-07T12:47:47;19;17;
33431;PMS5003;35187;31.882;34.828;2023-05-07T12:50:17;24;20;
33431;PMS5003;35187;31.882;34.828;2023-05-07T12:52:47;23;21;
33431;PMS5003;35187;31.882;34.828;2023-05-07T12:55:17;28;23;
33431;PMS5003;35187;31.882;34.828;2023-05-07T12:57:47;25;22;
33431;PMS5003;35187;31.882;34.828;2023-05-07T13:00:17;19;17;
33431;PMS5003;35187;31.882;34.828;2023-05-07T13:03:00;21;18;
33431;PMS5003;35187;31.882;34.828;2023-05-07T13:05:31;20;19;
33431;PMS5003;35187;31.882;34.828;2023-05-07T13:08:00;28;24;
33431;PMS5003;35187;31.882;34.828;2023-05-07T13:10:31;19;17;
33431;PMS5003;35187;31.882;34.828;2023-05-07T13:12:59;19;17;
33431;PMS5003;35187;31.882;34.828;2023-05-07T13:15:28;23;21;
33431;PMS5003;35187;31.882;34.828;2023-05-07T13:17:58;19;18;
33431;PMS5003;35187;31.882;34.828;2023-05-07T13:20:33;24;23;
33431;PMS5003;35187;31.882;34.828;2023-05-07T13:23:04;19;18;
33431;PMS5003;35187;31.882;34.828;2023-05-07T13:25:39;22;21;
33431;PMS5003;35187;31.882;34.828;2023-05-07T13:28:08;23;19;
33431;PMS5003;35187;31.882;34.828;2023-05-07T13:30:37;20;18;
33431;PMS5003;35187;31.882;34.828;2023-05-07T13:33:06;22;20;
33431;PMS5003;35187;31.882;34.828;2023-05-07T13:35:35;21;20;
33431;PMS5003;35187;31.882;34.828;2023-05-07T13:38:07;21;19;
33431;PMS5003;35187;31.882;34.828;2023-05-07T13:40:40;22;20;
33431;PMS5003;35187;31.882;34.828;2023-05-07T13:43:09;19;19;
33431;PMS5003;35187;31.882;34.828;2023-05-07T13:45:38;23;21;
33431;PMS5003;35187;31.882;34.828;2023-05-07T13:48:07;22;20;
33431;PMS5003;35187;31.882;34.828;2023-05-07T13:50:35;24;20;
33431;PMS5003;35187;31.882;34.828;2023-05-07T13:53:05;19;18;
33431;PMS5003;35187;31.882;34.828;2023-05-07T13:55:35;23;21;
33431;PMS5003;35187;31.882;34.828;2023-05-07T13:58:05;21;20;
33431;PMS5003;35187;31.882;34.828;2023-05-07T14:00:38;24;18;
33431;PMS5003;35187;31.882;34.828;2023-05-07T14:03:07;22;21;
33431;PMS5003;35187;31.882;34.828;2023-05-07T14:05:36;25;20;
33431;PMS5003;35187;31.882;34.828;2023-05-07T14:08:04;23;20;
33431;PMS5003;35187;31.882;34.828;2023-05-07T14:10:33;24;22;
33431;PMS5003;35187;31.882;34.828;2023-05-07T14:13:02;23;21;
33431;PMS5003;35187;31.882;34.828;2023-05-07T14:15:32;21;19;
33431;PMS5003;35187;31.882;34.828;2023-05-07T14:18:01;20;18;
33431;PMS5003;35187;31.882;34.828;2023-05-07T14:20:30;24;23;
33431;PMS5003;35187;31.882;34.828;2023-05-07T14:23:03;22;21;
33431;PMS5003;35187;31.882;34.828;2023-05-07T14:25:32;22;21;
33431;PMS5003;35187;31.882;34.828;2023-05-07T14:28:01;22;20;
33431;PMS5003;35187;31.882;34.828;2023-05-07T14:30:36;23;21;
33431;PMS5003;35187;31.882;34.828;2023-05-07T14:33:05;24;22;
33431;PMS5003;35187;31.882;34.828;2023-05-07T14:35:34;25;22;
33431;PMS5003;35187;31.882;34.828;2023-05-07T14:38:03;23;21;
33431;PMS5003;35187;31.882;34.828;2023-05-07T14:40:32;23;22;
33431;PMS5003;35187;31.882;34.828;2023-05-07T14:43:01;22;19;
33431;PMS5003;35187;31.882;34.828;2023-05-07T14:45:38;25;21;
33431;PMS5003;35187;31.882;34.828;2023-05-07T14:48:07;22;20;
33431;PMS5003;35187;31.882;34.828;2023-05-07T14:50:36;22;20;
33431;PMS5003;35187;31.882;34.828;2023-05-07T14:53:05;21;19;
33431;PMS5003;35187;31.882;34.828;2023-05-07T14:55:35;20;19;
33431;PMS5003;35187;31.882;34.828;2023-05-07T14:58:07;23;20;
33431;PMS5003;35187;31.882;34.828;2023-05-07T15:00:42;24;22;
33431;PMS5003;35187;31.882;34.828;2023-05-07T15:03:12;21;20;
33431;PMS5003;35187;31.882;34.828;2023-05-07T15:05:41;25;21;
33431;PMS5003;35187;31.882;34.828;2023-05-07T15:08:25;21;20;
33431;PMS5003;35187;31.882;34.828;2023-05-07T15:11:33;20;18;
33431;PMS5003;35187;31.882;34.828;2023-05-07T15:14:44;24;22;
33431;PMS5003;35187;31.882;34.828;2023-05-07T15:17:26;22;19;
33431;PMS5003;35187;31.882;34.828;2023-05-07T15:20:22;27;21;
33431;PMS5003;35187;31.882;34.828;2023-05-07T15:22:55;20;18;
33431;PMS5003;35187;31.882;34.828;2023-05-07T15:25:25;21;19;
33431;PMS5003;35187;31.882;34.828;2023-05-07T15:27:54;21;19;
33431;PMS5003;35187;31.882;34.828;2023-05-07T15:30:23;23;20;
33431;PMS5003;35187;31.882;34.828;2023-05-07T15:33:12;19;18;
33431;PMS5003;35187;31.882;34.828;2023-05-07T15:36:01;19;17;
33431;PMS5003;35187;31.882;34.828;2023-05-07T15:39:13;24;22;
33431;PMS5003;35187;31.882;34.828;2023-05-07T15:41:55;24;21;
33431;PMS5003;35187;31.882;34.828;2023-05-07T15:44:23;22;19;
33431;PMS5003;35187;31.882;34.828;2023-05-07T15:47:17;25;22;
33431;PMS5003;35187;31.882;34.828;2023-05-07T15:49:48;22;21;
33431;PMS5003;35187;31.882;34.828;2023-05-07T15:52:19;22;21;
33431;PMS5003;35187;31.882;34.828;2023-05-07T15:54:48;21;20;
33431;PMS5003;35187;31.882;34.828;2023-05-07T15:57:16;19;19;
33431;PMS5003;35187;31.882;34.828;2023-05-07T15:59:45;19;18;
33431;PMS5003;35187;31.882;34.828;2023-05-07T16:02:14;23;20;
33431;PMS5003;35187;31.882;34.828;2023-05-07T16:04:43;25;21;
33431;PMS5003;35187;31.882;34.828;2023-05-07T16:07:12;20;19;
33431;PMS5003;35187;31.882;34.828;2023-05-07T16:09:41;25;23;
33431;PMS5003;35187;31.882;34.828;2023-05-07T16:12:10;25;23;
33431;PMS5003;35187;31.882;34.828;2023-05-07T16:14:39;24;22;
33431;PMS5003;35187;31.882;34.828;2023-05-07T16:17:08;19;19;
33431;PMS5003;35187;31.882;34.828;2023-05-07T16:19:37;25;21;
33431;PMS5003;35187;31.882;34.828;2023-05-07T16:22:06;23;19;
33431;PMS5003;35187;31.882;34.828;2023-05-07T16:24:35;25;22;
33431;PMS5003;35187;31.882;34.828;2023-05-07T16:27:05;23;20;
33431;PMS5003;35187;31.882;34.828;2023-05-07T16:29:39;21;19;
33431;PMS5003;35187;31.882;34.828;2023-05-07T16:32:08;25;22;